createdAt,value
2023-09-08T00:00:15.481Z,18.71
2023-09-08T00:02:43.429Z,18.67
2023-09-08T00:05:11.521Z,18.62
2023-09-08T00:07:39.598Z,18.58
2023-09-08T00:10:08.995Z,18.56
2023-09-08T00:12:37.193Z,18.52
2023-09-08T00:15:07.184Z,18.48
2023-09-08T00:17:37.080Z,18.42
2023-09-08T00:20:09.527Z,18.38
2023-09-08T00:22:38.382Z,18.34
2023-09-08T00:25:08.194Z,18.25
2023-09-08T00:27:36.532Z,18.17
2023-09-08T00:30:06.442Z,18.09
2023-09-08T00:32:34.784Z,18.04
2023-09-08T00:35:03.121Z,18.04
2023-09-08T00:37:31.293Z,18.07
2023-09-08T00:39:59.668Z,18.05
2023-09-08T00:42:27.969Z,18.02
2023-09-08T00:44:56.620Z,17.96
2023-09-08T00:47:24.576Z,17.93
2023-09-08T00:49:52.573Z,17.92
2023-09-08T00:52:21.261Z,17.91
2023-09-08T00:54:49.582Z,17.90
2023-09-08T00:57:18.160Z,17.90
2023-09-08T00:59:47.443Z,17.91
2023-09-08T01:02:15.667Z,17.91
2023-09-08T01:04:45.516Z,17.89
2023-09-08T01:07:15.026Z,17.89
2023-09-08T01:09:43.272Z,17.90
2023-09-08T01:12:11.696Z,17.91
2023-09-08T01:14:39.711Z,17.90
2023-09-08T01:17:07.857Z,17.89
2023-09-08T01:19:37.544Z,17.89
2023-09-08T01:22:22.874Z,17.87
2023-09-08T01:25:17.214Z,17.84
2023-09-08T01:27:49.521Z,17.79
2023-09-08T01:30:18.654Z,17.75
2023-09-08T01:32:47.636Z,17.70
2023-09-08T01:35:16.121Z,17.67
2023-09-08T01:37:46.703Z,17.66
2023-09-08T01:40:15.557Z,17.65
2023-09-08T01:42:43.763Z,17.62
2023-09-08T01:45:12.161Z,17.60
2023-09-08T01:47:40.755Z,17.57
2023-09-08T01:50:10.327Z,17.54
2023-09-08T01:52:38.604Z,17.52
2023-09-08T01:55:08.443Z,17.48
2023-09-08T01:57:36.561Z,17.44
2023-09-08T02:00:06.791Z,17.38
2023-09-08T02:02:34.739Z,17.34
2023-09-08T02:05:02.661Z,17.29
2023-09-08T02:07:31.800Z,17.22
2023-09-08T02:10:00.254Z,17.15
2023-09-08T02:12:29.130Z,17.09
2023-09-08T02:14:58.107Z,17.05
2023-09-08T02:17:25.923Z,17.00
2023-09-08T02:19:53.096Z,16.96
2023-09-08T02:22:20.810Z,16.93
2023-09-08T02:24:47.951Z,16.90
2023-09-08T02:27:16.426Z,16.84
2023-09-08T02:29:45.017Z,16.75
2023-09-08T02:32:14.664Z,16.67
2023-09-08T02:34:42.993Z,16.61
2023-09-08T02:37:10.759Z,16.62
2023-09-08T02:39:37.960Z,16.62
2023-09-08T02:42:06.204Z,16.61
2023-09-08T02:44:33.955Z,16.63
2023-09-08T02:47:00.779Z,16.65
2023-09-08T02:49:29.009Z,16.63
2023-09-08T02:51:56.810Z,16.63
2023-09-08T02:54:23.694Z,16.63
2023-09-08T02:56:51.381Z,16.62
2023-09-08T02:59:18.202Z,16.61
2023-09-08T03:01:46.759Z,16.60
2023-09-08T03:04:14.727Z,16.60
2023-09-08T03:06:42.526Z,16.60
2023-09-08T03:09:09.449Z,16.58
2023-09-08T03:11:38.113Z,16.54
2023-09-08T03:14:06.021Z,16.52
2023-09-08T03:16:34.700Z,16.52
2023-09-08T03:19:02.567Z,16.50
2023-09-08T03:21:29.623Z,16.47
2023-09-08T03:23:57.862Z,16.41
2023-09-08T03:26:25.672Z,16.35
2023-09-08T03:28:52.970Z,16.28
2023-09-08T03:31:20.916Z,16.24
2023-09-08T03:33:48.902Z,16.26
2023-09-08T03:36:17.565Z,16.28
2023-09-08T03:38:45.729Z,16.27
2023-09-08T03:41:13.810Z,16.28
2023-09-08T03:43:41.566Z,16.28
2023-09-08T03:46:08.471Z,16.27
2023-09-08T03:48:36.403Z,16.25
2023-09-08T03:51:03.517Z,16.22
2023-09-08T03:53:32.941Z,16.18
2023-09-08T03:56:00.947Z,16.17
2023-09-08T03:58:29.448Z,16.16
2023-09-08T04:00:58.145Z,16.13
2023-09-08T04:03:26.551Z,16.11
2023-09-08T04:05:54.766Z,16.10
2023-09-08T04:08:23.170Z,16.08
2023-09-08T04:10:51.358Z,16.06
2023-09-08T04:13:19.850Z,16.03
2023-09-08T04:15:47.629Z,15.94
2023-09-08T04:18:15.668Z,15.86
2023-09-08T04:20:43.638Z,15.80
2023-09-08T04:23:11.447Z,15.75
2023-09-08T04:25:38.650Z,15.71
2023-09-08T04:28:07.440Z,15.65
2023-09-08T04:30:36.027Z,15.62
2023-09-08T04:33:04.492Z,15.58
2023-09-08T04:35:32.879Z,15.57
2023-09-08T04:38:03.405Z,15.54
2023-09-08T04:40:32.457Z,15.52
2023-09-08T04:43:01.118Z,15.52
2023-09-08T04:45:28.909Z,15.52
2023-09-08T04:47:56.454Z,15.51
2023-09-08T04:50:24.919Z,15.48
2023-09-08T04:52:52.714Z,15.47
2023-09-08T04:55:20.230Z,15.49
2023-09-08T04:57:47.542Z,15.49
2023-09-08T05:00:18.017Z,15.47
2023-09-08T05:02:45.864Z,15.48
2023-09-08T05:05:14.412Z,15.46
2023-09-08T05:07:42.695Z,15.47
2023-09-08T05:10:11.985Z,15.51
2023-09-08T05:12:39.954Z,15.55
2023-09-08T05:15:15.349Z,15.61
2023-09-08T05:17:43.688Z,15.67
2023-09-08T05:20:11.883Z,15.72
2023-09-08T05:22:39.694Z,15.77
2023-09-08T05:25:07.405Z,15.81
2023-09-08T05:27:35.567Z,15.77
2023-09-08T05:30:04.696Z,15.76
2023-09-08T05:32:32.699Z,15.75
2023-09-08T05:35:00.930Z,15.76
2023-09-08T05:37:28.768Z,15.80
2023-09-08T05:39:56.637Z,15.83
2023-09-08T05:42:25.002Z,15.86
2023-09-08T05:44:55.074Z,15.91
2023-09-08T05:47:22.941Z,15.96
2023-09-08T05:49:50.718Z,16.02
2023-09-08T05:52:18.714Z,16.09
2023-09-08T05:54:46.903Z,16.16
2023-09-08T05:57:14.998Z,16.26
2023-09-08T05:59:42.960Z,16.36
2023-09-08T06:02:10.804Z,16.47
2023-09-08T06:04:38.620Z,16.59
2023-09-08T06:07:05.592Z,16.70
2023-09-08T06:09:33.790Z,16.77
2023-09-08T06:12:02.319Z,16.88
2023-09-08T06:14:30.084Z,16.97
2023-09-08T06:16:57.932Z,17.06
2023-09-08T06:19:26.144Z,17.11
2023-09-08T06:21:54.562Z,17.21
2023-09-08T06:24:22.440Z,17.33
2023-09-08T06:26:50.773Z,17.45
2023-09-08T06:29:18.634Z,17.58
2023-09-08T06:31:47.695Z,17.70
2023-09-08T06:34:15.669Z,17.84
2023-09-08T06:36:43.991Z,17.97
2023-09-08T06:39:12.196Z,18.10
2023-09-08T06:41:40.813Z,18.24
2023-09-08T06:44:08.696Z,18.34
2023-09-08T06:46:36.581Z,18.42
2023-09-08T06:49:05.334Z,18.54
2023-09-08T06:51:33.612Z,18.68
2023-09-08T06:54:01.555Z,18.82
2023-09-08T06:56:30.441Z,18.93
2023-09-08T06:58:58.858Z,19.05
2023-09-08T07:01:27.076Z,19.18
2023-09-08T07:03:55.241Z,19.29
2023-09-08T07:06:24.290Z,19.41
2023-09-08T07:08:52.114Z,19.55
2023-09-08T07:11:20.594Z,19.67
2023-09-08T07:13:48.516Z,19.78
2023-09-08T07:16:17.160Z,19.93
2023-09-08T07:18:45.024Z,20.06
2023-09-08T07:21:12.974Z,20.20
2023-09-08T07:23:41.083Z,20.34
2023-09-08T07:26:08.910Z,20.52
2023-09-08T07:28:37.274Z,20.68
2023-09-08T07:31:09.511Z,20.81
2023-09-08T07:33:37.677Z,20.94
2023-09-08T07:36:07.614Z,21.11
2023-09-08T07:38:36.069Z,21.26
2023-09-08T07:41:04.635Z,21.41
2023-09-08T07:43:33.165Z,21.55
2023-09-08T07:46:01.598Z,21.67
2023-09-08T07:48:29.598Z,21.80
2023-09-08T07:50:59.021Z,21.93
2023-09-08T07:53:26.895Z,22.05
2023-09-08T07:55:54.933Z,22.18
2023-09-08T07:58:23.322Z,22.30
2023-09-08T08:00:51.407Z,22.41
2023-09-08T08:03:19.910Z,22.56
2023-09-08T08:05:48.458Z,22.67
2023-09-08T08:08:16.442Z,22.78
2023-09-08T08:10:44.835Z,22.90
2023-09-08T08:13:12.639Z,23.03
2023-09-08T08:15:43.168Z,23.19
2023-09-08T08:18:11.231Z,23.34
2023-09-08T08:20:39.881Z,23.48
2023-09-08T08:23:08.834Z,23.62
2023-09-08T08:25:38.906Z,23.77
2023-09-08T08:28:07.374Z,23.91
2023-09-08T08:30:35.920Z,24.04
2023-09-08T08:33:04.816Z,24.19
2023-09-08T08:35:32.721Z,24.32
2023-09-08T08:38:01.063Z,24.46
2023-09-08T08:40:29.773Z,24.59
2023-09-08T08:43:01.401Z,24.70
2023-09-08T08:45:31.313Z,24.82
2023-09-08T08:48:00.667Z,24.91
2023-09-08T08:50:29.027Z,25.04
2023-09-08T08:52:57.385Z,25.16
2023-09-08T08:55:27.506Z,25.28
2023-09-08T08:57:56.361Z,25.43
2023-09-08T09:00:24.295Z,25.55
2023-09-08T09:03:07.176Z,25.64
2023-09-08T09:05:42.396Z,25.71
2023-09-08T09:08:13.674Z,25.81
2023-09-08T09:10:41.544Z,25.91
2023-09-08T09:13:09.986Z,26.02
2023-09-08T09:15:38.758Z,26.15
2023-09-08T09:18:09.550Z,26.28
2023-09-08T09:20:37.718Z,26.38
2023-09-08T09:23:06.251Z,26.51
2023-09-08T09:25:34.579Z,26.63
2023-09-08T09:28:03.640Z,26.75
2023-09-08T09:30:51.584Z,26.86
2023-09-08T09:33:19.885Z,27.01
2023-09-08T09:35:50.214Z,27.15
2023-09-08T09:38:19.234Z,27.27
2023-09-08T09:40:47.895Z,27.38
2023-09-08T09:43:17.174Z,27.50
2023-09-08T09:45:45.721Z,27.60
2023-09-08T09:48:14.054Z,27.70
2023-09-08T09:50:43.565Z,27.81
2023-09-08T09:53:13.190Z,27.91
2023-09-08T09:55:42.426Z,27.99
2023-09-08T09:58:11.484Z,28.08
2023-09-08T10:00:41.568Z,28.18
2023-09-08T10:03:11.208Z,28.27
2023-09-08T10:05:39.839Z,28.35
2023-09-08T10:08:08.506Z,28.41
2023-09-08T10:10:36.914Z,28.47
2023-09-08T10:13:07.551Z,28.52
2023-09-08T10:15:36.294Z,28.62
2023-09-08T10:18:06.441Z,28.71
2023-09-08T10:20:37.576Z,28.82
2023-09-08T10:23:28.393Z,28.92
2023-09-08T10:26:02.087Z,28.98
2023-09-08T10:28:33.300Z,29.03
2023-09-08T10:31:02.811Z,29.08
2023-09-08T10:33:32.228Z,29.12
2023-09-08T10:36:03.538Z,29.20
2023-09-08T10:38:34.289Z,29.24
2023-09-08T10:41:32.741Z,29.28
2023-09-08T10:44:05.124Z,29.33
2023-09-08T10:46:33.944Z,29.38
2023-09-08T10:49:07.576Z,29.45
2023-09-08T10:51:36.276Z,29.50
2023-09-08T10:54:04.729Z,29.52
2023-09-08T10:56:54.810Z,29.50
2023-09-08T10:59:28.446Z,29.49
2023-09-08T11:01:57.002Z,29.51
2023-09-08T11:04:26.287Z,29.52
2023-09-08T11:06:56.833Z,29.55
2023-09-08T11:09:24.943Z,29.62
2023-09-08T11:11:53.106Z,29.71
2023-09-08T11:14:21.020Z,29.80
2023-09-08T11:16:49.254Z,29.87
2023-09-08T11:19:17.912Z,29.94
2023-09-08T11:21:46.333Z,30.04
2023-09-08T11:24:15.359Z,30.11
2023-09-08T11:26:47.013Z,30.20
2023-09-08T11:29:16.157Z,30.25
2023-09-08T11:31:44.977Z,30.30
2023-09-08T11:34:15.136Z,30.36
2023-09-08T11:36:42.937Z,30.39
2023-09-08T11:39:11.741Z,30.41
2023-09-08T11:41:40.288Z,30.41
2023-09-08T11:44:08.232Z,30.44
2023-09-08T11:46:36.381Z,30.48
2023-09-08T11:49:06.372Z,30.52
2023-09-08T11:51:34.453Z,30.57
2023-09-08T11:54:03.451Z,30.63
2023-09-08T11:56:32.566Z,30.67
2023-09-08T11:59:02.671Z,30.71
2023-09-08T12:01:31.226Z,30.80
2023-09-08T12:03:59.197Z,30.85
2023-09-08T12:06:28.720Z,30.86
2023-09-08T12:08:59.512Z,30.87
2023-09-08T12:11:35.252Z,30.90
2023-09-08T12:14:07.397Z,30.93
2023-09-08T12:16:35.768Z,30.96
2023-09-08T12:19:04.025Z,30.97
2023-09-08T12:21:32.976Z,30.99
2023-09-08T12:24:00.754Z,31.03
2023-09-08T12:26:30.535Z,31.11
2023-09-08T12:28:58.634Z,31.17
2023-09-08T12:31:26.823Z,31.23
2023-09-08T12:33:55.628Z,31.29
2023-09-08T12:36:25.444Z,31.32
2023-09-08T12:38:54.067Z,31.38
2023-09-08T12:41:22.047Z,31.44
2023-09-08T12:43:50.747Z,31.48
2023-09-08T12:46:19.631Z,31.50
2023-09-08T12:48:47.973Z,31.52
2023-09-08T12:51:16.105Z,31.58
2023-09-08T12:53:43.797Z,31.61
2023-09-08T12:56:11.604Z,31.62
2023-09-08T12:58:39.357Z,31.62
2023-09-08T13:01:07.559Z,31.62
2023-09-08T13:03:35.692Z,31.65
2023-09-08T13:06:03.651Z,31.67
2023-09-08T13:08:32.135Z,31.70
2023-09-08T13:10:59.983Z,31.74
2023-09-08T13:13:29.746Z,31.79
2023-09-08T13:15:58.374Z,31.86
2023-09-08T13:18:26.944Z,31.93
2023-09-08T13:20:54.586Z,31.99
2023-09-08T13:23:23.027Z,32.00
2023-09-08T13:25:51.466Z,32.03
2023-09-08T13:28:19.511Z,32.06
2023-09-08T13:30:47.325Z,32.08
2023-09-08T13:33:15.344Z,32.08
2023-09-08T13:35:43.893Z,32.12
2023-09-08T13:38:11.759Z,32.13
2023-09-08T13:40:40.161Z,32.14
2023-09-08T13:43:07.999Z,32.14
2023-09-08T13:45:36.904Z,32.16
2023-09-08T13:48:07.354Z,32.18
2023-09-08T13:50:37.465Z,32.18
2023-09-08T13:53:06.097Z,32.21
2023-09-08T13:55:38.459Z,32.23
2023-09-08T13:58:09.571Z,32.25
2023-09-08T14:00:39.662Z,32.26
2023-09-08T14:03:13.167Z,32.26
2023-09-08T14:05:45.940Z,32.25
2023-09-08T14:08:18.567Z,32.19
2023-09-08T14:10:53.836Z,32.16
2023-09-08T14:13:32.624Z,32.14
2023-09-08T14:16:03.007Z,32.18
2023-09-08T14:18:30.972Z,32.22
2023-09-08T14:20:58.923Z,32.26
2023-09-08T14:23:27.472Z,32.28
2023-09-08T14:25:55.328Z,32.30
2023-09-08T14:28:23.508Z,32.31
2023-09-08T14:30:52.354Z,32.34
2023-09-08T14:33:20.648Z,32.33
2023-09-08T14:35:51.793Z,32.32
2023-09-08T14:38:19.785Z,32.34
2023-09-08T14:40:55.950Z,32.33
2023-09-08T14:43:24.098Z,32.28
2023-09-08T14:45:52.615Z,32.24
2023-09-08T14:48:21.083Z,32.21
2023-09-08T14:50:49.939Z,32.18
2023-09-08T14:53:18.208Z,32.18
2023-09-08T14:55:48.340Z,32.17
2023-09-08T14:58:16.156Z,32.20
2023-09-08T15:00:45.634Z,32.22
2023-09-08T15:03:13.651Z,32.21
2023-09-08T15:05:41.480Z,32.20
2023-09-08T15:08:09.759Z,32.19
2023-09-08T15:10:37.753Z,32.17
2023-09-08T15:13:06.155Z,32.14
2023-09-08T15:15:34.023Z,32.08
2023-09-08T15:18:01.924Z,32.07
2023-09-08T15:20:29.763Z,32.05
2023-09-08T15:22:58.014Z,32.01
2023-09-08T15:25:26.018Z,31.98
2023-09-08T15:27:53.745Z,31.97
2023-09-08T15:30:21.921Z,31.97
2023-09-08T15:32:50.156Z,31.96
2023-09-08T15:35:18.449Z,31.91
2023-09-08T15:37:46.194Z,31.88
2023-09-08T15:40:14.700Z,31.85
2023-09-08T15:42:43.803Z,31.82
2023-09-08T15:45:12.558Z,31.78
2023-09-08T15:47:40.632Z,31.75
2023-09-08T15:50:10.796Z,31.71
2023-09-08T15:52:38.877Z,31.63
2023-09-08T15:55:08.263Z,31.56
2023-09-08T15:57:35.957Z,31.48
2023-09-08T16:00:07.211Z,31.41
2023-09-08T16:02:35.763Z,31.32
2023-09-08T16:05:03.917Z,31.24
2023-09-08T16:07:32.042Z,31.16
2023-09-08T16:10:00.224Z,31.06
2023-09-08T16:12:28.459Z,30.98
2023-09-08T16:14:56.230Z,30.93
2023-09-08T16:17:25.869Z,30.87
2023-09-08T16:19:53.784Z,30.81
2023-09-08T16:22:22.133Z,30.73
2023-09-08T16:24:49.985Z,30.64
2023-09-08T16:27:17.972Z,30.56
2023-09-08T16:29:46.202Z,30.48
2023-09-08T16:32:13.990Z,30.43
2023-09-08T16:34:42.594Z,30.40
2023-09-08T16:37:10.717Z,30.41
2023-09-08T16:39:38.863Z,30.50
2023-09-08T16:42:07.251Z,30.71
2023-09-08T16:44:35.358Z,30.93
2023-09-08T16:47:03.701Z,31.04
2023-09-08T16:49:32.221Z,31.02
2023-09-08T16:52:01.117Z,30.87
2023-09-08T16:54:29.067Z,30.71
2023-09-08T16:56:58.615Z,30.52
2023-09-08T16:59:26.809Z,30.32
2023-09-08T17:01:54.634Z,30.12
2023-09-08T17:04:22.916Z,29.92
2023-09-08T17:06:51.008Z,29.75
2023-09-08T17:09:18.895Z,29.61
2023-09-08T17:11:47.194Z,29.54
2023-09-08T17:14:15.234Z,29.59
2023-09-08T17:16:43.420Z,29.73
2023-09-08T17:19:12.166Z,29.93
2023-09-08T17:21:40.553Z,30.04
2023-09-08T17:24:09.652Z,30.09
2023-09-08T17:26:37.763Z,30.13
2023-09-08T17:29:08.080Z,30.16
2023-09-08T17:31:36.466Z,30.16
2023-09-08T17:34:07.730Z,30.05
2023-09-08T17:36:36.119Z,29.80
2023-09-08T17:39:05.596Z,29.55
2023-09-08T17:41:33.844Z,29.28
2023-09-08T17:44:02.011Z,28.97
2023-09-08T17:46:33.535Z,28.64
2023-09-08T17:49:02.162Z,28.29
2023-09-08T17:51:29.979Z,27.96
2023-09-08T17:53:58.259Z,27.64
2023-09-08T17:56:26.490Z,27.33
2023-09-08T17:58:54.871Z,26.99
2023-09-08T18:01:22.976Z,26.67
2023-09-08T18:03:51.193Z,26.40
2023-09-08T18:06:19.434Z,26.17
2023-09-08T18:08:50.858Z,25.96
2023-09-08T18:11:20.950Z,25.76
2023-09-08T18:13:49.911Z,25.57
2023-09-08T18:16:18.832Z,25.38
2023-09-08T18:18:47.632Z,25.20
2023-09-08T18:21:15.807Z,25.02
2023-09-08T18:23:44.102Z,24.86
2023-09-08T18:26:11.900Z,24.70
2023-09-08T18:28:40.148Z,24.56
2023-09-08T18:31:08.429Z,24.41
2023-09-08T18:33:36.826Z,24.29
2023-09-08T18:36:07.017Z,24.17
2023-09-08T18:38:35.300Z,24.07
2023-09-08T18:41:03.644Z,23.96
2023-09-08T18:43:31.978Z,23.86
2023-09-08T18:46:00.221Z,23.78
2023-09-08T18:48:28.434Z,23.69
2023-09-08T18:50:56.328Z,23.62
2023-09-08T18:53:24.597Z,23.56
2023-09-08T18:55:53.140Z,23.51
2023-09-08T18:58:23.232Z,23.45
2023-09-08T19:00:51.767Z,23.39
2023-09-08T19:03:19.799Z,23.34
2023-09-08T19:05:48.048Z,23.28
2023-09-08T19:08:15.787Z,23.24
2023-09-08T19:10:43.604Z,23.19
2023-09-08T19:13:11.970Z,23.12
2023-09-08T19:15:40.589Z,23.08
2023-09-08T19:18:08.451Z,23.04
2023-09-08T19:20:37.167Z,22.98
2023-09-08T19:23:05.668Z,22.94
2023-09-08T19:25:37.675Z,22.88
2023-09-08T19:28:07.462Z,22.81
2023-09-08T19:30:35.242Z,22.72
2023-09-08T19:33:03.541Z,22.65
2023-09-08T19:35:34.694Z,22.57
2023-09-08T19:38:02.763Z,22.50
2023-09-08T19:40:30.482Z,22.43
2023-09-08T19:42:58.557Z,22.35
2023-09-08T19:45:26.413Z,22.28
2023-09-08T19:47:55.433Z,22.20
2023-09-08T19:50:23.384Z,22.08
2023-09-08T19:52:51.200Z,21.96
2023-09-08T19:55:19.001Z,21.83
2023-09-08T19:57:47.009Z,21.72
2023-09-08T20:00:16.153Z,21.63
2023-09-08T20:02:45.052Z,21.53
2023-09-08T20:05:12.840Z,21.40
2023-09-08T20:07:41.232Z,21.33
2023-09-08T20:10:12.097Z,21.28
2023-09-08T20:12:41.775Z,21.22
2023-09-08T20:15:11.692Z,21.16
2023-09-08T20:17:40.932Z,21.10
2023-09-08T20:20:11.398Z,21.06
2023-09-08T20:22:39.405Z,21.02
2023-09-08T20:25:09.895Z,20.97
2023-09-08T20:27:37.985Z,20.90
2023-09-08T20:30:08.946Z,20.85
2023-09-08T20:32:37.011Z,20.79
2023-09-08T20:35:07.796Z,20.71
2023-09-08T20:37:35.951Z,20.58
2023-09-08T20:40:05.992Z,20.44
2023-09-08T20:42:34.026Z,20.34
2023-09-08T20:45:02.085Z,20.27
2023-09-08T20:47:30.196Z,20.22
2023-09-08T20:49:57.901Z,20.18
2023-09-08T20:52:25.661Z,20.16
2023-09-08T20:54:54.129Z,20.14
2023-09-08T20:57:22.089Z,20.13
2023-09-08T20:59:49.740Z,20.13
2023-09-08T21:02:17.224Z,20.10
2023-09-08T21:04:45.349Z,20.05
2023-09-08T21:07:13.829Z,20.00
2023-09-08T21:09:42.106Z,19.95
2023-09-08T21:12:10.710Z,19.91
2023-09-08T21:14:40.076Z,19.87
2023-09-08T21:17:07.993Z,19.84
2023-09-08T21:19:35.736Z,19.83
2023-09-08T21:22:04.268Z,19.80
2023-09-08T21:24:32.806Z,19.78
2023-09-08T21:27:00.504Z,19.69
2023-09-08T21:29:28.614Z,19.59
2023-09-08T21:31:57.366Z,19.47
2023-09-08T21:34:25.532Z,19.37
2023-09-08T21:36:53.617Z,19.31
2023-09-08T21:39:22.448Z,19.29
2023-09-08T21:41:50.287Z,19.28
2023-09-08T21:44:18.339Z,19.25
2023-09-08T21:46:46.173Z,19.22
2023-09-08T21:49:13.961Z,19.18
2023-09-08T21:51:44.248Z,19.11
2023-09-08T21:54:13.001Z,19.06
2023-09-08T21:56:41.088Z,19.01
2023-09-08T21:59:08.820Z,18.94
2023-09-08T22:01:35.898Z,18.89
2023-09-08T22:04:04.662Z,18.85
2023-09-08T22:06:33.000Z,18.81
2023-09-08T22:09:01.822Z,18.80
2023-09-08T22:11:31.139Z,18.77
2023-09-08T22:13:59.381Z,18.71
2023-09-08T22:16:29.229Z,18.67
2023-09-08T22:18:57.349Z,18.65
2023-09-08T22:21:25.334Z,18.62
2023-09-08T22:23:53.539Z,18.57
2023-09-08T22:26:21.880Z,18.51
2023-09-08T22:28:50.322Z,18.47
2023-09-08T22:31:18.367Z,18.41
2023-09-08T22:33:48.131Z,18.37
2023-09-08T22:36:16.149Z,18.34
2023-09-08T22:38:43.870Z,18.34
2023-09-08T22:41:12.047Z,18.34
2023-09-08T22:43:41.050Z,18.35
2023-09-08T22:46:09.291Z,18.34
2023-09-08T22:48:37.099Z,18.33
2023-09-08T22:51:05.148Z,18.30
2023-09-08T22:53:33.016Z,18.26
2023-09-08T22:56:00.969Z,18.26
2023-09-08T22:58:39.330Z,18.21
2023-09-08T23:01:07.315Z,18.19
2023-09-08T23:03:35.786Z,18.14
2023-09-08T23:06:04.909Z,18.09
2023-09-08T23:08:32.677Z,18.05
2023-09-08T23:11:00.419Z,18.02
2023-09-08T23:13:29.029Z,17.99
2023-09-08T23:15:57.349Z,17.97
2023-09-08T23:18:25.400Z,17.96
2023-09-08T23:20:54.273Z,17.94
2023-09-08T23:23:22.039Z,17.93
2023-09-08T23:25:50.806Z,17.91
2023-09-08T23:28:18.830Z,17.90
2023-09-08T23:30:47.202Z,17.89
2023-09-08T23:33:15.593Z,17.88
2023-09-08T23:35:43.483Z,17.84
2023-09-08T23:38:11.018Z,17.82
2023-09-08T23:40:38.756Z,17.75
2023-09-08T23:43:05.628Z,17.68
2023-09-08T23:45:33.474Z,17.60
2023-09-08T23:48:02.202Z,17.54
2023-09-08T23:50:56.616Z,17.52
2023-09-08T23:53:25.349Z,17.51
2023-09-08T23:55:54.423Z,17.48
2023-09-08T23:58:22.862Z,17.44
